sensor_id;sensor_type;location;lat;lon;timestamp;temperature;humidity
23748;DHT22;12054;53.662;10.126;2022-10-16T00:00:29;15.30;99.90
23748;DHT22;12054;53.662;10.126;2022-10-16T00:02:54;15.20;99.90
23748;DHT22;12054;53.662;10.126;2022-10-16T00:05:20;15.20;99.90
23748;DHT22;12054;53.662;10.126;2022-10-16T00:07:46;15.20;99.90
23748;DHT22;12054;53.662;10.126;2022-10-16T00:10:11;15.20;99.90
23748;DHT22;12054;53.662;10.126;2022-10-16T00:12:37;15.20;99.90
23748;DHT22;12054;53.662;10.126;2022-10-16T00:15:03;15.20;99.90
23748;DHT22;12054;53.662;10.126;2022-10-16T00:17:29;15.20;99.90
23748;DHT22;12054;53.662;10.126;2022-10-16T00:19:55;15.20;99.90
23748;DHT22;12054;53.662;10.126;2022-10-16T00:22:20;15.20;99.90
23748;DHT22;12054;53.662;10.126;2022-10-16T00:24:45;15.10;99.90
23748;DHT22;12054;53.662;10.126;2022-10-16T00:27:11;15.10;99.90
23748;DHT22;12054;53.662;10.126;2022-10-16T00:29:37;15.10;99.90
23748;DHT22;12054;53.662;10.126;2022-10-16T00:32:03;15.10;99.90
23748;DHT22;12054;53.662;10.126;2022-10-16T00:34:29;15.10;99.90
23748;DHT22;12054;53.662;10.126;2022-10-16T00:36:54;15.10;99.90
23748;DHT22;12054;53.662;10.126;2022-10-16T00:39:20;15.00;99.90
23748;DHT22;12054;53.662;10.126;2022-10-16T00:41:45;15.00;99.90
23748;DHT22;12054;53.662;10.126;2022-10-16T00:47:15;15.00;99.90
23748;DHT22;12054;53.662;10.126;2022-10-16T00:49:42;15.00;99.90
23748;DHT22;12054;53.662;10.126;2022-10-16T00:52:10;15.00;99.90
23748;DHT22;12054;53.662;10.126;2022-10-16T00:54:35;15.00;99.90
23748;DHT22;12054;53.662;10.126;2022-10-16T00:57:06;15.00;99.90
23748;DHT22;12054;53.662;10.126;2022-10-16T00:59:41;15.00;99.90
23748;DHT22;12054;53.662;10.126;2022-10-16T01:02:12;14.90;99.90
23748;DHT22;12054;53.662;10.126;2022-10-16T01:04:47;14.90;99.90
23748;DHT22;12054;53.662;10.126;2022-10-16T01:10:13;14.90;99.90
23748;DHT22;12054;53.662;10.126;2022-10-16T01:15:25;14.90;99.90
23748;DHT22;12054;53.662;10.126;2022-10-16T01:17:59;14.90;99.90
23748;DHT22;12054;53.662;10.126;2022-10-16T01:20:54;14.90;99.90
23748;DHT22;12054;53.662;10.126;2022-10-16T01:26:19;14.80;99.90
23748;DHT22;12054;53.662;10.126;2022-10-16T01:28:56;14.80;99.90
23748;DHT22;12054;53.662;10.126;2022-10-16T01:31:26;14.80;99.90
23748;DHT22;12054;53.662;10.126;2022-10-16T01:34:05;14.80;99.90
23748;DHT22;12054;53.662;10.126;2022-10-16T01:36:38;14.80;99.90
23748;DHT22;12054;53.662;10.126;2022-10-16T01:39:07;14.80;99.90
23748;DHT22;12054;53.662;10.126;2022-10-16T01:41:39;14.80;99.90
23748;DHT22;12054;53.662;10.126;2022-10-16T01:44:09;14.70;99.90
23748;DHT22;12054;53.662;10.126;2022-10-16T01:46:38;14.70;99.90
23748;DHT22;12054;53.662;10.126;2022-10-16T01:49:05;14.70;99.90
23748;DHT22;12054;53.662;10.126;2022-10-16T01:51:32;14.70;99.90
23748;DHT22;12054;53.662;10.126;2022-10-16T01:54:00;14.70;99.90
23748;DHT22;12054;53.662;10.126;2022-10-16T01:56:28;14.70;99.90
23748;DHT22;12054;53.662;10.126;2022-10-16T01:59:11;14.70;99.90
23748;DHT22;12054;53.662;10.126;2022-10-16T02:01:40;14.60;99.90
23748;DHT22;12054;53.662;10.126;2022-10-16T02:04:19;14.60;99.90
23748;DHT22;12054;53.662;10.126;2022-10-16T02:06:46;14.60;99.90
23748;DHT22;12054;53.662;10.126;2022-10-16T02:09:11;14.60;99.90
23748;DHT22;12054;53.662;10.126;2022-10-16T02:11:37;14.60;99.90
23748;DHT22;12054;53.662;10.126;2022-10-16T02:14:05;14.60;99.90
23748;DHT22;12054;53.662;10.126;2022-10-16T02:16:36;14.60;99.90
23748;DHT22;12054;53.662;10.126;2022-10-16T02:19:03;14.50;99.90
23748;DHT22;12054;53.662;10.126;2022-10-16T02:21:55;14.50;99.90
23748;DHT22;12054;53.662;10.126;2022-10-16T02:24:43;14.50;99.90
23748;DHT22;12054;53.662;10.126;2022-10-16T02:27:25;14.50;99.90
23748;DHT22;12054;53.662;10.126;2022-10-16T02:29:59;14.50;99.90
23748;DHT22;12054;53.662;10.126;2022-10-16T02:32:30;14.50;99.90
23748;DHT22;12054;53.662;10.126;2022-10-16T02:34:57;14.40;99.90
23748;DHT22;12054;53.662;10.126;2022-10-16T02:37:28;14.50;99.90
23748;DHT22;12054;53.662;10.126;2022-10-16T02:39:56;14.40;99.90
23748;DHT22;12054;53.662;10.126;2022-10-16T02:42:28;14.40;99.90
23748;DHT22;12054;53.662;10.126;2022-10-16T02:44:53;14.40;99.90
23748;DHT22;12054;53.662;10.126;2022-10-16T02:47:21;14.40;99.90
23748;DHT22;12054;53.662;10.126;2022-10-16T02:49:46;14.30;99.90
23748;DHT22;12054;53.662;10.126;2022-10-16T02:52:12;14.30;99.90
23748;DHT22;12054;53.662;10.126;2022-10-16T02:54:37;14.30;99.90
23748;DHT22;12054;53.662;10.126;2022-10-16T02:57:03;14.40;99.90
23748;DHT22;12054;53.662;10.126;2022-10-16T02:59:28;14.30;99.90
23748;DHT22;12054;53.662;10.126;2022-10-16T03:01:54;14.30;99.90
23748;DHT22;12054;53.662;10.126;2022-10-16T03:04:19;14.20;99.90
23748;DHT22;12054;53.662;10.126;2022-10-16T03:06:45;14.20;99.90
23748;DHT22;12054;53.662;10.126;2022-10-16T03:09:10;14.20;99.90
23748;DHT22;12054;53.662;10.126;2022-10-16T03:11:37;14.20;99.90
23748;DHT22;12054;53.662;10.126;2022-10-16T03:14:02;14.20;99.90
23748;DHT22;12054;53.662;10.126;2022-10-16T03:16:45;14.20;99.90
23748;DHT22;12054;53.662;10.126;2022-10-16T03:19:11;14.20;99.90
23748;DHT22;12054;53.662;10.126;2022-10-16T03:21:36;14.10;99.90
23748;DHT22;12054;53.662;10.126;2022-10-16T03:24:03;14.10;99.90
23748;DHT22;12054;53.662;10.126;2022-10-16T03:26:28;14.10;99.90
23748;DHT22;12054;53.662;10.126;2022-10-16T03:28:54;14.10;99.90
23748;DHT22;12054;53.662;10.126;2022-10-16T03:31:19;14.10;99.90
23748;DHT22;12054;53.662;10.126;2022-10-16T03:33:45;14.00;99.90
23748;DHT22;12054;53.662;10.126;2022-10-16T03:36:10;14.10;99.90
23748;DHT22;12054;53.662;10.126;2022-10-16T03:38:36;14.00;99.90
23748;DHT22;12054;53.662;10.126;2022-10-16T03:41:01;14.00;99.90
23748;DHT22;12054;53.662;10.126;2022-10-16T03:43:27;14.00;99.90
23748;DHT22;12054;53.662;10.126;2022-10-16T03:45:52;13.90;99.90
23748;DHT22;12054;53.662;10.126;2022-10-16T03:48:21;13.90;99.90
23748;DHT22;12054;53.662;10.126;2022-10-16T03:50:46;13.90;99.90
23748;DHT22;12054;53.662;10.126;2022-10-16T03:53:14;13.90;99.90
23748;DHT22;12054;53.662;10.126;2022-10-16T03:55:43;13.80;99.90
23748;DHT22;12054;53.662;10.126;2022-10-16T03:58:09;13.80;99.90
23748;DHT22;12054;53.662;10.126;2022-10-16T04:00:35;13.80;99.90
23748;DHT22;12054;53.662;10.126;2022-10-16T04:03:01;13.70;99.90
23748;DHT22;12054;53.662;10.126;2022-10-16T04:05:26;13.70;99.90
23748;DHT22;12054;53.662;10.126;2022-10-16T04:07:52;13.70;99.90
23748;DHT22;12054;53.662;10.126;2022-10-16T04:10:18;13.60;99.90
23748;DHT22;12054;53.662;10.126;2022-10-16T04:12:44;13.70;99.90
23748;DHT22;12054;53.662;10.126;2022-10-16T04:15:10;13.70;99.90
23748;DHT22;12054;53.662;10.126;2022-10-16T04:17:36;13.60;99.90
23748;DHT22;12054;53.662;10.126;2022-10-16T04:20:01;13.60;99.90
23748;DHT22;12054;53.662;10.126;2022-10-16T04:22:27;13.60;99.90
23748;DHT22;12054;53.662;10.126;2022-10-16T04:24:52;13.60;99.90
23748;DHT22;12054;53.662;10.126;2022-10-16T04:27:18;13.60;99.90
23748;DHT22;12054;53.662;10.126;2022-10-16T04:29:43;13.60;99.90
23748;DHT22;12054;53.662;10.126;2022-10-16T04:32:09;13.60;99.90
23748;DHT22;12054;53.662;10.126;2022-10-16T04:34:35;13.50;99.90
23748;DHT22;12054;53.662;10.126;2022-10-16T04:37:00;13.50;99.90
23748;DHT22;12054;53.662;10.126;2022-10-16T04:39:26;13.50;99.90
23748;DHT22;12054;53.662;10.126;2022-10-16T04:41:51;13.50;99.90
23748;DHT22;12054;53.662;10.126;2022-10-16T04:44:17;13.50;99.90
23748;DHT22;12054;53.662;10.126;2022-10-16T04:46:42;13.40;99.90
23748;DHT22;12054;53.662;10.126;2022-10-16T04:49:09;13.40;99.90
23748;DHT22;12054;53.662;10.126;2022-10-16T04:51:35;13.40;99.90
23748;DHT22;12054;53.662;10.126;2022-10-16T04:54:00;13.40;99.90
23748;DHT22;12054;53.662;10.126;2022-10-16T04:56:26;13.40;99.90
23748;DHT22;12054;53.662;10.126;2022-10-16T04:58:51;13.40;99.90
23748;DHT22;12054;53.662;10.126;2022-10-16T05:01:17;13.40;99.90
23748;DHT22;12054;53.662;10.126;2022-10-16T05:03:42;13.30;99.90
23748;DHT22;12054;53.662;10.126;2022-10-16T05:06:08;13.30;99.90
23748;DHT22;12054;53.662;10.126;2022-10-16T05:08:34;13.30;99.90
23748;DHT22;12054;53.662;10.126;2022-10-16T05:10:59;13.30;99.90
23748;DHT22;12054;53.662;10.126;2022-10-16T05:13:25;13.30;99.90
23748;DHT22;12054;53.662;10.126;2022-10-16T05:15:51;13.30;99.90
23748;DHT22;12054;53.662;10.126;2022-10-16T05:18:16;13.30;99.90
23748;DHT22;12054;53.662;10.126;2022-10-16T05:20:42;13.30;99.90
23748;DHT22;12054;53.662;10.126;2022-10-16T05:23:08;13.30;99.90
23748;DHT22;12054;53.662;10.126;2022-10-16T05:25:35;13.30;99.90
23748;DHT22;12054;53.662;10.126;2022-10-16T05:28:01;13.20;99.90
23748;DHT22;12054;53.662;10.126;2022-10-16T05:30:27;13.20;99.90
23748;DHT22;12054;53.662;10.126;2022-10-16T05:32:52;13.20;99.90
23748;DHT22;12054;53.662;10.126;2022-10-16T05:35:18;13.20;99.90
23748;DHT22;12054;53.662;10.126;2022-10-16T05:37:44;13.20;99.90
23748;DHT22;12054;53.662;10.126;2022-10-16T05:40:10;13.10;99.90
23748;DHT22;12054;53.662;10.126;2022-10-16T05:42:36;13.10;99.90
23748;DHT22;12054;53.662;10.126;2022-10-16T05:45:03;13.10;99.90
23748;DHT22;12054;53.662;10.126;2022-10-16T05:47:29;13.10;99.90
23748;DHT22;12054;53.662;10.126;2022-10-16T05:49:57;13.00;99.90
23748;DHT22;12054;53.662;10.126;2022-10-16T05:52:23;13.00;99.90
23748;DHT22;12054;53.662;10.126;2022-10-16T05:54:48;13.00;99.90
23748;DHT22;12054;53.662;10.126;2022-10-16T05:57:45;13.00;99.90
23748;DHT22;12054;53.662;10.126;2022-10-16T06:00:11;13.00;99.90
23748;DHT22;12054;53.662;10.126;2022-10-16T06:02:37;13.00;99.90
23748;DHT22;12054;53.662;10.126;2022-10-16T06:05:02;13.00;99.90
23748;DHT22;12054;53.662;10.126;2022-10-16T06:07:28;13.00;99.90
23748;DHT22;12054;53.662;10.126;2022-10-16T06:09:53;13.00;99.90
23748;DHT22;12054;53.662;10.126;2022-10-16T06:12:21;13.00;99.90
23748;DHT22;12054;53.662;10.126;2022-10-16T06:14:46;13.00;99.90
23748;DHT22;12054;53.662;10.126;2022-10-16T06:17:13;12.90;99.90
23748;DHT22;12054;53.662;10.126;2022-10-16T06:19:39;13.00;99.90
23748;DHT22;12054;53.662;10.126;2022-10-16T06:22:05;12.90;99.90
23748;DHT22;12054;53.662;10.126;2022-10-16T06:24:31;12.90;99.90
23748;DHT22;12054;53.662;10.126;2022-10-16T06:26:56;12.90;99.90
23748;DHT22;12054;53.662;10.126;2022-10-16T06:29:22;12.90;99.90
23748;DHT22;12054;53.662;10.126;2022-10-16T06:31:47;12.90;99.90
23748;DHT22;12054;53.662;10.126;2022-10-16T06:34:14;12.90;99.90
23748;DHT22;12054;53.662;10.126;2022-10-16T06:36:40;12.90;99.90
23748;DHT22;12054;53.662;10.126;2022-10-16T06:39:06;12.90;99.90
23748;DHT22;12054;53.662;10.126;2022-10-16T06:41:33;12.90;99.90
23748;DHT22;12054;53.662;10.126;2022-10-16T06:43:58;12.90;99.90
23748;DHT22;12054;53.662;10.126;2022-10-16T06:46:25;12.80;99.90
23748;DHT22;12054;53.662;10.126;2022-10-16T06:48:52;12.90;99.90
23748;DHT22;12054;53.662;10.126;2022-10-16T06:51:20;12.80;99.90
23748;DHT22;12054;53.662;10.126;2022-10-16T06:53:55;12.90;99.90
23748;DHT22;12054;53.662;10.126;2022-10-16T06:56:26;12.80;99.90
23748;DHT22;12054;53.662;10.126;2022-10-16T06:58:52;12.90;99.90
23748;DHT22;12054;53.662;10.126;2022-10-16T07:01:20;12.90;99.90
23748;DHT22;12054;53.662;10.126;2022-10-16T07:03:46;12.90;99.90
23748;DHT22;12054;53.662;10.126;2022-10-16T07:06:14;12.90;99.90
23748;DHT22;12054;53.662;10.126;2022-10-16T07:08:41;12.90;99.90
23748;DHT22;12054;53.662;10.126;2022-10-16T07:11:12;12.90;99.90
23748;DHT22;12054;53.662;10.126;2022-10-16T07:13:40;13.00;99.90
23748;DHT22;12054;53.662;10.126;2022-10-16T07:16:08;13.00;99.90
23748;DHT22;12054;53.662;10.126;2022-10-16T07:18:34;13.20;99.90
23748;DHT22;12054;53.662;10.126;2022-10-16T07:21:19;13.30;99.90
23748;DHT22;12054;53.662;10.126;2022-10-16T07:23:49;13.50;99.90
23748;DHT22;12054;53.662;10.126;2022-10-16T07:26:16;13.60;99.90
23748;DHT22;12054;53.662;10.126;2022-10-16T07:28:43;13.70;99.90
23748;DHT22;12054;53.662;10.126;2022-10-16T07:31:11;13.80;99.90
23748;DHT22;12054;53.662;10.126;2022-10-16T07:33:40;13.90;99.90
23748;DHT22;12054;53.662;10.126;2022-10-16T07:36:08;13.90;99.90
23748;DHT22;12054;53.662;10.126;2022-10-16T07:38:33;14.00;99.90
23748;DHT22;12054;53.662;10.126;2022-10-16T07:41:04;14.00;99.90
23748;DHT22;12054;53.662;10.126;2022-10-16T07:43:31;14.10;99.90
23748;DHT22;12054;53.662;10.126;2022-10-16T07:46:01;14.10;99.90
23748;DHT22;12054;53.662;10.126;2022-10-16T07:48:31;14.20;99.90
23748;DHT22;12054;53.662;10.126;2022-10-16T07:51:02;14.30;99.90
23748;DHT22;12054;53.662;10.126;2022-10-16T07:53:28;14.40;99.90
23748;DHT22;12054;53.662;10.126;2022-10-16T07:56:01;14.60;99.90
23748;DHT22;12054;53.662;10.126;2022-10-16T07:58:28;14.80;99.90
23748;DHT22;12054;53.662;10.126;2022-10-16T08:00:55;14.90;99.90
23748;DHT22;12054;53.662;10.126;2022-10-16T08:03:21;15.10;99.90
23748;DHT22;12054;53.662;10.126;2022-10-16T08:05:46;15.20;99.90
23748;DHT22;12054;53.662;10.126;2022-10-16T08:08:14;15.20;99.90
23748;DHT22;12054;53.662;10.126;2022-10-16T08:10:40;15.20;99.90
23748;DHT22;12054;53.662;10.126;2022-10-16T08:13:06;15.20;99.90
23748;DHT22;12054;53.662;10.126;2022-10-16T08:15:31;15.20;99.90
23748;DHT22;12054;53.662;10.126;2022-10-16T08:17:58;15.20;99.90
23748;DHT22;12054;53.662;10.126;2022-10-16T08:20:25;15.20;99.90
23748;DHT22;12054;53.662;10.126;2022-10-16T08:22:51;15.20;99.90
23748;DHT22;12054;53.662;10.126;2022-10-16T08:25:17;15.30;99.90
23748;DHT22;12054;53.662;10.126;2022-10-16T08:27:42;15.40;99.90
23748;DHT22;12054;53.662;10.126;2022-10-16T08:30:08;15.50;99.90
23748;DHT22;12054;53.662;10.126;2022-10-16T08:32:36;15.70;99.90
23748;DHT22;12054;53.662;10.126;2022-10-16T08:35:02;16.00;99.90
23748;DHT22;12054;53.662;10.126;2022-10-16T08:37:31;16.10;99.90
23748;DHT22;12054;53.662;10.126;2022-10-16T08:39:57;16.30;99.90
23748;DHT22;12054;53.662;10.126;2022-10-16T08:46:04;16.70;99.90
23748;DHT22;12054;53.662;10.126;2022-10-16T08:48:52;16.90;99.90
23748;DHT22;12054;53.662;10.126;2022-10-16T08:51:22;17.00;99.90
23748;DHT22;12054;53.662;10.126;2022-10-16T08:54:03;17.00;99.90
23748;DHT22;12054;53.662;10.126;2022-10-16T08:56:30;17.00;99.90
23748;DHT22;12054;53.662;10.126;2022-10-16T08:58:58;17.10;99.90
23748;DHT22;12054;53.662;10.126;2022-10-16T09:01:32;17.10;99.90
23748;DHT22;12054;53.662;10.126;2022-10-16T09:06:52;17.20;99.90
23748;DHT22;12054;53.662;10.126;2022-10-16T09:09:44;17.30;99.90
23748;DHT22;12054;53.662;10.126;2022-10-16T09:12:32;17.50;99.90
23748;DHT22;12054;53.662;10.126;2022-10-16T09:17:56;17.70;99.90
23748;DHT22;12054;53.662;10.126;2022-10-16T09:20:50;17.70;99.90
23748;DHT22;12054;53.662;10.126;2022-10-16T09:23:25;17.80;99.90
23748;DHT22;12054;53.662;10.126;2022-10-16T09:25:55;17.80;99.90
23748;DHT22;12054;53.662;10.126;2022-10-16T09:28:23;17.80;99.90
23748;DHT22;12054;53.662;10.126;2022-10-16T09:30:49;17.90;99.90
23748;DHT22;12054;53.662;10.126;2022-10-16T09:33:28;18.00;99.90
23748;DHT22;12054;53.662;10.126;2022-10-16T09:35:56;18.10;99.90
23748;DHT22;12054;53.662;10.126;2022-10-16T09:40:56;18.20;99.90
23748;DHT22;12054;53.662;10.126;2022-10-16T09:43:56;18.20;99.90
23748;DHT22;12054;53.662;10.126;2022-10-16T09:46:30;18.30;99.90
23748;DHT22;12054;53.662;10.126;2022-10-16T09:49:01;18.40;99.90
23748;DHT22;12054;53.662;10.126;2022-10-16T09:51:34;18.50;99.90
23748;DHT22;12054;53.662;10.126;2022-10-16T09:56:33;18.70;99.90
23748;DHT22;12054;53.662;10.126;2022-10-16T09:59:08;18.80;99.90
23748;DHT22;12054;53.662;10.126;2022-10-16T10:04:13;18.90;99.90
23748;DHT22;12054;53.662;10.126;2022-10-16T10:06:52;19.00;99.90
23748;DHT22;12054;53.662;10.126;2022-10-16T10:11:47;19.00;99.90
23748;DHT22;12054;53.662;10.126;2022-10-16T10:14:21;19.10;99.90
23748;DHT22;12054;53.662;10.126;2022-10-16T10:16:47;19.20;99.90
23748;DHT22;12054;53.662;10.126;2022-10-16T10:19:21;19.20;99.90
23748;DHT22;12054;53.662;10.126;2022-10-16T10:21:47;19.30;99.90
23748;DHT22;12054;53.662;10.126;2022-10-16T10:24:15;19.30;99.90
23748;DHT22;12054;53.662;10.126;2022-10-16T10:27:06;19.30;99.90
23748;DHT22;12054;53.662;10.126;2022-10-16T10:29:41;19.30;99.90
23748;DHT22;12054;53.662;10.126;2022-10-16T10:43:45;19.40;99.90
23748;DHT22;12054;53.662;10.126;2022-10-16T10:46:35;19.40;99.90
23748;DHT22;12054;53.662;10.126;2022-10-16T10:52:46;19.50;99.90
23748;DHT22;12054;53.662;10.126;2022-10-16T10:55:29;19.50;99.90
23748;DHT22;12054;53.662;10.126;2022-10-16T10:58:19;19.50;99.90
23748;DHT22;12054;53.662;10.126;2022-10-16T11:03:57;19.40;99.90
23748;DHT22;12054;53.662;10.126;2022-10-16T11:09:12;19.40;99.90
23748;DHT22;12054;53.662;10.126;2022-10-16T11:14:30;19.60;99.90
23748;DHT22;12054;53.662;10.126;2022-10-16T11:17:06;19.60;99.90
23748;DHT22;12054;53.662;10.126;2022-10-16T11:19:54;19.70;99.90
23748;DHT22;12054;53.662;10.126;2022-10-16T11:22:28;19.70;99.90
23748;DHT22;12054;53.662;10.126;2022-10-16T11:27:40;19.80;99.90
23748;DHT22;12054;53.662;10.126;2022-10-16T11:30:18;19.80;99.90
23748;DHT22;12054;53.662;10.126;2022-10-16T11:32:54;19.80;99.90
23748;DHT22;12054;53.662;10.126;2022-10-16T11:35:47;19.90;99.90
23748;DHT22;12054;53.662;10.126;2022-10-16T11:38:25;19.90;99.90
23748;DHT22;12054;53.662;10.126;2022-10-16T11:40:56;19.90;99.90
23748;DHT22;12054;53.662;10.126;2022-10-16T11:43:43;19.90;99.90
23748;DHT22;12054;53.662;10.126;2022-10-16T11:46:16;19.80;99.90
23748;DHT22;12054;53.662;10.126;2022-10-16T11:48:49;19.70;99.90
23748;DHT22;12054;53.662;10.126;2022-10-16T11:51:38;19.70;99.90
23748;DHT22;12054;53.662;10.126;2022-10-16T11:56:38;19.50;99.90
23748;DHT22;12054;53.662;10.126;2022-10-16T12:01:46;19.50;99.90
23748;DHT22;12054;53.662;10.126;2022-10-16T12:06:47;19.60;99.90
23748;DHT22;12054;53.662;10.126;2022-10-16T12:09:27;19.60;99.90
23748;DHT22;12054;53.662;10.126;2022-10-16T12:11:54;19.60;99.90
23748;DHT22;12054;53.662;10.126;2022-10-16T12:19:29;19.70;99.90
23748;DHT22;12054;53.662;10.126;2022-10-16T12:21:58;19.70;99.90
23748;DHT22;12054;53.662;10.126;2022-10-16T12:24:42;19.80;99.90
23748;DHT22;12054;53.662;10.126;2022-10-16T12:27:27;19.80;99.90
23748;DHT22;12054;53.662;10.126;2022-10-16T12:29:58;19.80;99.80
23748;DHT22;12054;53.662;10.126;2022-10-16T12:32:33;19.80;99.80
23748;DHT22;12054;53.662;10.126;2022-10-16T12:35:00;19.80;99.40
23748;DHT22;12054;53.662;10.126;2022-10-16T12:37:35;19.80;99.00
23748;DHT22;12054;53.662;10.126;2022-10-16T12:40:24;19.80;99.00
23748;DHT22;12054;53.662;10.126;2022-10-16T12:42:50;19.90;98.90
23748;DHT22;12054;53.662;10.126;2022-10-16T12:47:52;19.80;98.90
23748;DHT22;12054;53.662;10.126;2022-10-16T12:50:36;19.80;98.90
23748;DHT22;12054;53.662;10.126;2022-10-16T12:53:16;19.80;98.90
23748;DHT22;12054;53.662;10.126;2022-10-16T13:01:29;19.70;99.10
23748;DHT22;12054;53.662;10.126;2022-10-16T13:12:46;19.60;98.40
23748;DHT22;12054;53.662;10.126;2022-10-16T13:15:38;19.60;98.30
23748;DHT22;12054;53.662;10.126;2022-10-16T13:18:19;19.60;98.30
23748;DHT22;12054;53.662;10.126;2022-10-16T13:21:10;19.60;98.40
23748;DHT22;12054;53.662;10.126;2022-10-16T13:23:46;19.60;98.40
23748;DHT22;12054;53.662;10.126;2022-10-16T13:29:23;19.70;97.90
23748;DHT22;12054;53.662;10.126;2022-10-16T13:31:54;19.70;97.90
23748;DHT22;12054;53.662;10.126;2022-10-16T13:34:22;19.70;98.00
23748;DHT22;12054;53.662;10.126;2022-10-16T13:36:50;19.70;97.90
23748;DHT22;12054;53.662;10.126;2022-10-16T13:42:10;19.70;97.70
23748;DHT22;12054;53.662;10.126;2022-10-16T13:44:44;19.70;97.70
23748;DHT22;12054;53.662;10.126;2022-10-16T13:47:25;19.70;97.40
23748;DHT22;12054;53.662;10.126;2022-10-16T13:50:03;19.70;97.10
23748;DHT22;12054;53.662;10.126;2022-10-16T13:52:30;19.70;97.30
23748;DHT22;12054;53.662;10.126;2022-10-16T13:54:56;19.70;97.30
23748;DHT22;12054;53.662;10.126;2022-10-16T13:57:23;19.70;97.30
23748;DHT22;12054;53.662;10.126;2022-10-16T13:59:49;19.70;97.30
23748;DHT22;12054;53.662;10.126;2022-10-16T14:04:49;19.60;97.20
23748;DHT22;12054;53.662;10.126;2022-10-16T14:07:20;19.60;97.40
23748;DHT22;12054;53.662;10.126;2022-10-16T14:09:50;19.60;97.50
23748;DHT22;12054;53.662;10.126;2022-10-16T14:12:16;19.60;97.30
23748;DHT22;12054;53.662;10.126;2022-10-16T14:14:52;19.50;97.20
23748;DHT22;12054;53.662;10.126;2022-10-16T14:17:22;19.50;97.30
23748;DHT22;12054;53.662;10.126;2022-10-16T14:19:51;19.40;97.30
23748;DHT22;12054;53.662;10.126;2022-10-16T14:22:40;19.40;97.40
23748;DHT22;12054;53.662;10.126;2022-10-16T14:25:24;19.30;97.50
23748;DHT22;12054;53.662;10.126;2022-10-16T14:30:28;19.30;97.60
23748;DHT22;12054;53.662;10.126;2022-10-16T14:33:01;19.30;97.70
23748;DHT22;12054;53.662;10.126;2022-10-16T14:35:33;19.20;97.80
23748;DHT22;12054;53.662;10.126;2022-10-16T14:38:01;19.20;97.70
23748;DHT22;12054;53.662;10.126;2022-10-16T14:40:33;19.20;97.60
23748;DHT22;12054;53.662;10.126;2022-10-16T14:42:59;19.10;97.50
23748;DHT22;12054;53.662;10.126;2022-10-16T14:45:29;19.10;97.60
23748;DHT22;12054;53.662;10.126;2022-10-16T14:47:58;19.10;97.70
23748;DHT22;12054;53.662;10.126;2022-10-16T14:50:24;19.10;97.70
23748;DHT22;12054;53.662;10.126;2022-10-16T14:52:50;19.10;97.80
23748;DHT22;12054;53.662;10.126;2022-10-16T14:55:16;19.10;98.00
23748;DHT22;12054;53.662;10.126;2022-10-16T14:57:42;19.10;98.10
23748;DHT22;12054;53.662;10.126;2022-10-16T15:00:22;19.10;98.10
23748;DHT22;12054;53.662;10.126;2022-10-16T15:02:49;19.10;98.10
23748;DHT22;12054;53.662;10.126;2022-10-16T15:05:18;19.00;98.00
23748;DHT22;12054;53.662;10.126;2022-10-16T15:07:44;19.00;98.10
23748;DHT22;12054;53.662;10.126;2022-10-16T15:10:11;19.00;98.20
23748;DHT22;12054;53.662;10.126;2022-10-16T15:12:37;18.90;98.10
23748;DHT22;12054;53.662;10.126;2022-10-16T15:17:55;18.90;98.30
23748;DHT22;12054;53.662;10.126;2022-10-16T15:20:26;18.90;98.30
23748;DHT22;12054;53.662;10.126;2022-10-16T15:22:52;18.80;98.30
23748;DHT22;12054;53.662;10.126;2022-10-16T15:25:39;18.80;98.40
23748;DHT22;12054;53.662;10.126;2022-10-16T15:28:07;18.80;98.50
23748;DHT22;12054;53.662;10.126;2022-10-16T15:30:34;18.80;98.50
23748;DHT22;12054;53.662;10.126;2022-10-16T15:33:00;18.80;98.50
23748;DHT22;12054;53.662;10.126;2022-10-16T15:35:25;18.70;98.50
23748;DHT22;12054;53.662;10.126;2022-10-16T15:37:51;18.70;98.60
23748;DHT22;12054;53.662;10.126;2022-10-16T15:40:18;18.70;98.80
23748;DHT22;12054;53.662;10.126;2022-10-16T15:42:44;18.70;98.90
23748;DHT22;12054;53.662;10.126;2022-10-16T15:45:11;18.70;99.10
23748;DHT22;12054;53.662;10.126;2022-10-16T15:47:37;18.70;99.20
23748;DHT22;12054;53.662;10.126;2022-10-16T15:50:03;18.60;99.20
23748;DHT22;12054;53.662;10.126;2022-10-16T15:52:29;18.60;99.40
23748;DHT22;12054;53.662;10.126;2022-10-16T15:54:57;18.60;99.50
23748;DHT22;12054;53.662;10.126;2022-10-16T15:57:22;18.50;99.50
23748;DHT22;12054;53.662;10.126;2022-10-16T15:59:49;18.50;99.60
23748;DHT22;12054;53.662;10.126;2022-10-16T16:02:14;18.50;99.70
23748;DHT22;12054;53.662;10.126;2022-10-16T16:04:40;18.40;99.60
23748;DHT22;12054;53.662;10.126;2022-10-16T16:07:05;18.40;99.60
23748;DHT22;12054;53.662;10.126;2022-10-16T16:09:33;18.40;99.60
23748;DHT22;12054;53.662;10.126;2022-10-16T16:11:58;18.30;99.70
23748;DHT22;12054;53.662;10.126;2022-10-16T16:14:26;18.30;99.70
23748;DHT22;12054;53.662;10.126;2022-10-16T16:16:56;18.30;99.90
23748;DHT22;12054;53.662;10.126;2022-10-16T16:19:22;18.30;99.90
23748;DHT22;12054;53.662;10.126;2022-10-16T16:21:48;18.20;99.90
23748;DHT22;12054;53.662;10.126;2022-10-16T16:24:13;18.20;99.90
23748;DHT22;12054;53.662;10.126;2022-10-16T16:26:39;18.20;99.90
23748;DHT22;12054;53.662;10.126;2022-10-16T16:29:10;18.10;99.90
23748;DHT22;12054;53.662;10.126;2022-10-16T16:31:36;18.10;99.90
23748;DHT22;12054;53.662;10.126;2022-10-16T16:34:02;18.10;99.90
23748;DHT22;12054;53.662;10.126;2022-10-16T16:36:28;18.00;99.90
23748;DHT22;12054;53.662;10.126;2022-10-16T16:38:53;18.00;99.90
23748;DHT22;12054;53.662;10.126;2022-10-16T16:41:27;18.00;99.90
23748;DHT22;12054;53.662;10.126;2022-10-16T16:43:54;17.90;99.90
23748;DHT22;12054;53.662;10.126;2022-10-16T16:46:21;17.90;99.90
23748;DHT22;12054;53.662;10.126;2022-10-16T16:48:47;17.90;99.90
23748;DHT22;12054;53.662;10.126;2022-10-16T16:51:16;17.80;99.90
23748;DHT22;12054;53.662;10.126;2022-10-16T16:53:46;17.80;99.90
23748;DHT22;12054;53.662;10.126;2022-10-16T16:56:13;17.70;99.90
23748;DHT22;12054;53.662;10.126;2022-10-16T16:58:39;17.60;99.90
23748;DHT22;12054;53.662;10.126;2022-10-16T17:01:05;17.60;99.90
23748;DHT22;12054;53.662;10.126;2022-10-16T17:03:33;17.60;99.90
23748;DHT22;12054;53.662;10.126;2022-10-16T17:06:07;17.50;99.90
23748;DHT22;12054;53.662;10.126;2022-10-16T17:08:36;17.50;99.90
23748;DHT22;12054;53.662;10.126;2022-10-16T17:11:02;17.40;99.90